createdAt,value
2018-01-20T00:00:39.583Z,1000.71
2018-01-20T00:01:20.085Z,1000.66
2018-01-20T00:02:00.619Z,1000.6
2018-01-20T00:02:42.780Z,1000.68
2018-01-20T00:03:24.731Z,1000.62
2018-01-20T00:04:05.990Z,1000.62
2018-01-20T00:04:46.468Z,1000.68
2018-01-20T00:05:27.408Z,1000.62
2018-01-20T00:06:07.841Z,1000.58
2018-01-20T00:06:48.411Z,1000.59
2018-01-20T00:07:29.210Z,1000.6
2018-01-20T00:08:10.590Z,1000.62
2018-01-20T00:08:51.120Z,1000.62
2018-01-20T00:09:32.869Z,1000.59
2018-01-20T00:10:13.413Z,1000.61
2018-01-20T00:10:55.476Z,1000.58
2018-01-20T00:11:35.959Z,1000.6
2018-01-20T00:12:16.517Z,1000.56
2018-01-20T00:12:58.486Z,1000.64
2018-01-20T00:13:39.313Z,1000.59
2018-01-20T00:14:19.862Z,1000.53
2018-01-20T00:15:01.620Z,1000.6
2018-01-20T00:15:42.310Z,1000.56
2018-01-20T00:16:23.560Z,1000.64
2018-01-20T00:17:04.156Z,1000.61
2018-01-20T00:17:44.709Z,1000.56
2018-01-20T00:18:26.771Z,1000.57
2018-01-20T00:19:07.345Z,1000.53
2018-01-20T00:19:47.870Z,1000.58
2018-01-20T00:20:28.384Z,1000.6
2018-01-20T00:21:08.915Z,1000.55
2018-01-20T00:21:49.443Z,1000.55
2018-01-20T00:22:29.960Z,1000.53
2018-01-20T00:23:11.793Z,1000.49
2018-01-20T00:23:52.553Z,1000.51
2018-01-20T00:24:33.107Z,1000.52
2018-01-20T00:25:13.710Z,1000.52
2018-01-20T00:25:54.328Z,1000.58
2018-01-20T00:26:34.946Z,1000.55
2018-01-20T00:27:17.013Z,1000.58
2018-01-20T00:27:57.467Z,1000.57
2018-01-20T00:28:39.000Z,1000.6
2018-01-20T00:29:19.494Z,1000.64
2018-01-20T00:30:00.052Z,1000.6
2018-01-20T00:30:40.599Z,1000.6
2018-01-20T00:31:22.572Z,1000.57
2018-01-20T00:32:03.362Z,1000.55
2018-01-20T00:32:44.826Z,1000.57
2018-01-20T00:33:27.375Z,1000.59
2018-01-20T00:34:09.124Z,1000.51
2018-01-20T00:34:49.500Z,1000.51
2018-01-20T00:35:30.054Z,1000.58
2018-01-20T00:36:10.641Z,1000.53
2018-01-20T00:36:52.178Z,1000.55
2018-01-20T00:37:33.556Z,1000.52
2018-01-20T00:38:15.730Z,1000.56
2018-01-20T00:38:58.929Z,1000.49
2018-01-20T00:39:39.500Z,1000.49
2018-01-20T00:40:20.160Z,1000.48
2018-01-20T00:41:01.856Z,1000.49
2018-01-20T00:41:42.643Z,1000.49
2018-01-20T00:42:23.190Z,1000.43
2018-01-20T00:43:03.775Z,1000.37
2018-01-20T00:43:44.327Z,1000.36
2018-01-20T00:44:25.740Z,1000.33
2018-01-20T00:45:06.297Z,1000.37
2018-01-20T00:45:46.841Z,1000.35
2018-01-20T00:46:28.177Z,1000.34
2018-01-20T00:47:10.259Z,1000.36
2018-01-20T00:47:50.980Z,1000.32
2018-01-20T00:48:31.741Z,1000.37
2018-01-20T00:49:12.382Z,1000.29
2018-01-20T00:49:52.887Z,1000.3
2018-01-20T00:50:33.560Z,1000.29
2018-01-20T00:51:14.122Z,1000.32
2018-01-20T00:51:55.542Z,1000.33
2018-01-20T00:52:37.039Z,1000.35
2018-01-20T00:53:17.535Z,1000.32
2018-01-20T00:54:00.492Z,1000.32
2018-01-20T00:54:42.421Z,1000.35
2018-01-20T00:55:22.938Z,1000.31
2018-01-20T00:57:52.324Z,1000.31
2018-01-20T00:58:33.019Z,1000.29
2018-01-20T00:59:13.584Z,1000.3
2018-01-20T00:59:54.116Z,1000.31
2018-01-20T01:00:34.777Z,1000.3
2018-01-20T01:01:15.232Z,1000.29
2018-01-20T01:01:55.757Z,1000.3
2018-01-20T01:02:36.302Z,1000.31
2018-01-20T01:03:16.849Z,1000.32
2018-01-20T01:03:57.405Z,1000.26
2018-01-20T01:04:39.139Z,1000.22
2018-01-20T01:05:19.700Z,1000.25
2018-01-20T01:06:00.248Z,1000.27
2018-01-20T01:06:40.783Z,1000.28
2018-01-20T01:07:21.395Z,1000.28
2018-01-20T01:08:02.173Z,1000.27
2018-01-20T01:08:42.712Z,1000.33
2018-01-20T01:09:23.393Z,1000.27
2018-01-20T01:10:03.931Z,1000.33
2018-01-20T01:10:45.606Z,1000.33
2018-01-20T01:11:25.034Z,1000.42
2018-01-20T01:12:05.723Z,1000.35
2018-01-20T01:12:46.268Z,1000.34
2018-01-20T01:13:26.786Z,1000.39
2018-01-20T01:14:07.336Z,1000.32
2018-01-20T01:14:55.477Z,1000.36
2018-01-20T01:15:36.013Z,1000.37
2018-01-20T01:16:20.215Z,1000.32
2018-01-20T01:17:08.393Z,1000.4
2018-01-20T01:17:52.737Z,1000.33
2018-01-20T01:18:42.724Z,1000.34
2018-01-20T01:19:23.305Z,1000.48
2018-01-20T01:20:03.828Z,1000.46
2018-01-20T01:20:45.130Z,1000.54
2018-01-20T01:21:25.727Z,1000.52
2018-01-20T01:22:06.226Z,1000.56
2018-01-20T01:22:46.745Z,1000.53
2018-01-20T01:23:27.285Z,1000.5
2018-01-20T01:24:07.822Z,1000.57
2018-01-20T01:24:48.376Z,1000.61
2018-01-20T01:25:28.863Z,1000.59
2018-01-20T01:26:09.423Z,1000.6
2018-01-20T01:26:49.993Z,1000.61
2018-01-20T01:27:30.497Z,1000.67
2018-01-20T01:28:11.091Z,1000.68
2018-01-20T01:28:51.607Z,1000.68
2018-01-20T01:29:32.134Z,1000.68
2018-01-20T01:30:12.611Z,1000.69
2018-01-20T01:30:53.159Z,1000.72
2018-01-20T01:31:33.692Z,1000.79
2018-01-20T01:32:14.277Z,1000.78
2018-01-20T01:32:54.794Z,1000.79
2018-01-20T01:33:35.303Z,1000.81
2018-01-20T01:34:15.874Z,1000.79
2018-01-20T01:34:58.713Z,1000.85
2018-01-20T01:35:39.257Z,1000.8
2018-01-20T01:36:19.825Z,1000.81
2018-01-20T01:37:00.370Z,1000.82
2018-01-20T01:37:40.920Z,1000.83
2018-01-20T01:38:21.411Z,1000.79
2018-01-20T01:39:04.583Z,1000.8
2018-01-20T01:39:48.185Z,1000.82
2018-01-20T01:40:30.466Z,1000.85
2018-01-20T01:43:16.831Z,1000.83
2018-01-20T01:43:59.291Z,1000.75
2018-01-20T01:44:39.961Z,1000.83
2018-01-20T01:45:21.504Z,1000.81
2018-01-20T01:46:02.091Z,1000.81
2018-01-20T01:46:42.603Z,1000.83
2018-01-20T01:47:23.174Z,1000.86
2018-01-20T01:48:03.703Z,1000.86
2018-01-20T01:48:44.295Z,1000.85
2018-01-20T01:50:51.628Z,1000.87
2018-01-20T01:53:14.359Z,1000.84
2018-01-20T01:53:58.824Z,1000.83
2018-01-20T01:54:44.568Z,1000.83
2018-01-20T01:55:23.865Z,1000.84
2018-01-20T01:56:04.643Z,1000.82
2018-01-20T01:56:45.187Z,1000.77
2018-01-20T01:57:26.629Z,1000.81
2018-01-20T01:58:07.206Z,1000.69
2018-01-20T01:58:47.677Z,1000.77
2018-01-20T01:59:28.268Z,1000.69
2018-01-20T02:01:51.743Z,1000.62
2018-01-20T02:02:32.266Z,1000.57
2018-01-20T02:03:12.801Z,1000.54
2018-01-20T02:03:53.339Z,1000.49
2018-01-20T02:04:33.896Z,1000.5
2018-01-20T02:05:16.277Z,1000.45
2018-01-20T02:05:56.894Z,1000.45
2018-01-20T02:06:37.464Z,1000.43
2018-01-20T02:07:18.036Z,1000.41
2018-01-20T02:07:58.838Z,1000.34
2018-01-20T02:08:40.011Z,1000.37
2018-01-20T02:09:21.001Z,1000.34
2018-01-20T02:10:01.284Z,1000.32
2018-01-20T02:10:41.797Z,1000.3
2018-01-20T02:11:22.326Z,1000.25
2018-01-20T02:12:02.883Z,1000.2
2018-01-20T02:12:43.389Z,1000.2
2018-01-20T02:13:23.954Z,1000.18
2018-01-20T02:14:05.404Z,1000.22
2018-01-20T02:14:46.022Z,1000.16
2018-01-20T02:15:26.923Z,1000.17
2018-01-20T02:16:07.411Z,1000.15
2018-01-20T02:16:47.992Z,1000.15
2018-01-20T02:17:28.547Z,1000.18
2018-01-20T02:18:10.335Z,1000.15
2018-01-20T02:18:50.912Z,1000.13
2018-01-20T02:19:31.497Z,1000.11
2018-01-20T02:20:11.980Z,1000.07
2018-01-20T02:20:52.544Z,1000.08
2018-01-20T02:21:33.017Z,1000.07
2018-01-20T02:22:13.586Z,1000.07
2018-01-20T02:22:55.256Z,1000.08
2018-01-20T02:23:35.702Z,1000.11
2018-01-20T02:24:21.516Z,1000.07
2018-01-20T02:25:02.113Z,1000.08
2018-01-20T02:25:42.603Z,1000.04
2018-01-20T02:26:23.147Z,1000.01
2018-01-20T02:27:03.682Z,999.99
2018-01-20T02:27:45.597Z,999.98
2018-01-20T02:28:26.134Z,1000
2018-01-20T02:29:06.725Z,999.97
2018-01-20T02:29:47.253Z,999.96
2018-01-20T02:30:27.831Z,999.92
2018-01-20T02:31:08.389Z,999.91
2018-01-20T02:31:50.470Z,999.86
2018-01-20T02:32:31.030Z,999.85
2018-01-20T02:33:11.594Z,999.85
2018-01-20T02:33:52.120Z,999.81
2018-01-20T02:34:32.624Z,999.82
2018-01-20T02:35:13.197Z,999.8
2018-01-20T02:35:53.781Z,999.79
2018-01-20T02:36:34.650Z,999.74
2018-01-20T02:37:16.885Z,999.72
2018-01-20T02:37:57.409Z,999.74
2018-01-20T02:38:37.963Z,999.71
2018-01-20T02:39:18.692Z,999.69
2018-01-20T02:41:35.131Z,999.8
2018-01-20T02:42:16.558Z,999.84
2018-01-20T02:42:57.177Z,999.79
2018-01-20T02:43:37.750Z,999.8
2018-01-20T02:44:18.331Z,999.79
2018-01-20T02:44:59.206Z,999.75
2018-01-20T02:45:40.755Z,999.76
2018-01-20T02:46:21.345Z,999.75
2018-01-20T02:47:01.948Z,999.77
2018-01-20T02:47:42.423Z,999.76
2018-01-20T02:48:22.961Z,999.76
2018-01-20T02:49:03.480Z,999.74
2018-01-20T02:49:44.413Z,999.75
2018-01-20T02:50:26.908Z,999.69
2018-01-20T02:51:07.434Z,999.72
2018-01-20T02:51:48.034Z,999.72
2018-01-20T02:52:28.583Z,999.73
2018-01-20T02:53:10.690Z,999.74
2018-01-20T02:53:51.680Z,999.82
2018-01-20T02:54:32.236Z,999.75
2018-01-20T02:55:12.796Z,999.79
2018-01-20T02:55:53.378Z,999.73
2018-01-20T02:56:35.530Z,999.74
2018-01-20T02:57:16.232Z,999.77
2018-01-20T02:57:56.887Z,999.72
2018-01-20T02:58:37.458Z,999.72
2018-01-20T02:59:17.968Z,999.71
2018-01-20T02:59:58.541Z,999.69
2018-01-20T03:00:39.947Z,999.68
2018-01-20T03:01:20.520Z,999.61
2018-01-20T03:02:01.498Z,999.58
2018-01-20T03:02:42.060Z,999.57
2018-01-20T03:03:22.590Z,999.57
2018-01-20T03:04:03.197Z,999.6
2018-01-20T03:04:43.833Z,999.56
2018-01-20T03:05:26.893Z,999.54
2018-01-20T03:06:07.504Z,999.62
2018-01-20T03:06:48.108Z,999.61
2018-01-20T03:07:28.690Z,999.54
2018-01-20T03:08:10.835Z,999.56
2018-01-20T03:08:51.391Z,999.59
2018-01-20T03:09:32.033Z,999.6
2018-01-20T03:10:12.637Z,999.6
2018-01-20T03:10:53.231Z,999.62
2018-01-20T03:11:33.831Z,999.62
2018-01-20T03:12:14.467Z,999.67
2018-01-20T03:12:55.053Z,999.6
2018-01-20T03:13:35.580Z,999.58
2018-01-20T03:14:16.169Z,999.6
2018-01-20T03:14:56.731Z,999.61
2018-01-20T03:15:37.264Z,999.6
2018-01-20T03:16:17.789Z,999.61
2018-01-20T03:16:58.358Z,999.63
2018-01-20T03:17:38.956Z,999.65
2018-01-20T03:18:19.537Z,999.64
2018-01-20T03:19:00.074Z,999.65
2018-01-20T03:19:40.649Z,999.65
2018-01-20T03:20:21.158Z,999.63
2018-01-20T03:21:01.763Z,999.61
2018-01-20T03:21:42.326Z,999.63
2018-01-20T03:22:22.907Z,999.52
2018-01-20T03:23:03.506Z,999.54
2018-01-20T03:23:44.043Z,999.54
2018-01-20T03:24:24.607Z,999.47
2018-01-20T03:25:05.178Z,999.56
2018-01-20T03:25:45.767Z,999.48
2018-01-20T03:26:26.330Z,999.49
2018-01-20T03:27:07.858Z,999.49
2018-01-20T03:27:48.463Z,999.49
2018-01-20T03:28:29.047Z,999.49
2018-01-20T03:29:12.166Z,999.51
2018-01-20T03:29:52.667Z,999.5
2018-01-20T03:30:33.247Z,999.48
2018-01-20T03:31:13.843Z,999.61
2018-01-20T03:31:54.391Z,999.53
2018-01-20T03:32:34.995Z,999.59
2018-01-20T03:33:15.540Z,999.62
2018-01-20T03:33:56.058Z,999.63
2018-01-20T03:34:36.644Z,999.62
2018-01-20T03:35:17.280Z,999.6
2018-01-20T03:35:57.922Z,999.56
2018-01-20T03:36:38.470Z,999.63
2018-01-20T03:37:19.027Z,999.55
2018-01-20T03:38:00.103Z,999.49
2018-01-20T03:38:40.712Z,999.54
2018-01-20T03:39:21.266Z,999.49
2018-01-20T03:40:01.820Z,999.48
2018-01-20T03:40:42.370Z,999.49
2018-01-20T03:41:22.937Z,999.54
2018-01-20T03:42:04.498Z,999.53
2018-01-20T03:42:45.111Z,999.5
2018-01-20T03:43:25.712Z,999.51
2018-01-20T03:44:06.247Z,999.5
2018-01-20T03:44:47.096Z,999.48
2018-01-20T03:45:27.649Z,999.51
2018-01-20T03:46:08.233Z,999.49
2018-01-20T03:46:49.627Z,999.51
2018-01-20T03:47:31.975Z,999.5
2018-01-20T03:48:13.016Z,999.57
2018-01-20T03:48:53.589Z,999.51
2018-01-20T03:49:34.161Z,999.51
2018-01-20T03:50:14.694Z,999.58
2018-01-20T03:50:56.205Z,999.54
2018-01-20T03:51:36.777Z,999.57
2018-01-20T03:52:17.334Z,999.51
2018-01-20T03:52:57.955Z,999.49
2018-01-20T03:53:38.521Z,999.57
2018-01-20T03:54:19.044Z,999.57
2018-01-20T03:54:59.686Z,999.56
2018-01-20T03:55:41.125Z,999.57
2018-01-20T03:56:21.486Z,999.59
2018-01-20T03:57:02.041Z,999.57
2018-01-20T03:57:43.195Z,999.51
2018-01-20T03:58:23.774Z,999.46
2018-01-20T03:59:04.337Z,999.51
2018-01-20T03:59:44.928Z,999.57
2018-01-20T04:00:25.483Z,999.55
2018-01-20T04:01:06.052Z,999.6
2018-01-20T04:01:46.638Z,999.52
2018-01-20T04:02:27.209Z,999.55
2018-01-20T04:03:07.766Z,999.55
2018-01-20T04:03:48.368Z,999.57
2018-01-20T04:04:31.565Z,999.61
2018-01-20T04:05:12.246Z,999.64
2018-01-20T04:05:52.784Z,999.61
2018-01-20T04:06:33.333Z,999.63
2018-01-20T04:07:13.950Z,999.56
2018-01-20T04:07:54.537Z,999.54
2018-01-20T04:08:35.144Z,999.53
2018-01-20T04:09:15.611Z,999.54
2018-01-20T04:09:56.189Z,999.52
2018-01-20T04:10:36.867Z,999.56
2018-01-20T04:11:17.463Z,999.55
2018-01-20T04:11:57.981Z,999.57
2018-01-20T04:12:38.552Z,999.52
2018-01-20T04:13:19.099Z,999.59
2018-01-20T04:13:59.728Z,999.46
2018-01-20T04:14:40.184Z,999.49
2018-01-20T04:15:20.809Z,999.57
2018-01-20T04:16:01.374Z,999.52
2018-01-20T04:16:41.871Z,999.53
2018-01-20T04:17:22.502Z,999.49
2018-01-20T04:18:02.974Z,999.47
2018-01-20T04:18:43.570Z,999.45
2018-01-20T04:19:24.124Z,999.41
2018-01-20T04:20:04.699Z,999.41
2018-01-20T04:20:45.254Z,999.37
2018-01-20T04:21:25.747Z,999.4
2018-01-20T04:22:06.388Z,999.4
2018-01-20T04:22:46.945Z,999.42
2018-01-20T04:23:27.500Z,999.37
2018-01-20T04:24:08.026Z,999.42
2018-01-20T04:24:48.541Z,999.42
2018-01-20T04:25:29.124Z,999.39
2018-01-20T04:26:09.684Z,999.35
2018-01-20T04:26:50.240Z,999.36
2018-01-20T04:27:30.829Z,999.44
2018-01-20T04:28:11.428Z,999.42
2018-01-20T04:28:52.008Z,999.39
2018-01-20T04:29:32.595Z,999.33
2018-01-20T04:30:13.155Z,999.35
2018-01-20T04:30:53.765Z,999.38
2018-01-20T04:31:34.341Z,999.29
2018-01-20T04:32:14.882Z,999.29
2018-01-20T04:32:55.484Z,999.31
2018-01-20T04:33:36.061Z,999.31
2018-01-20T04:34:16.667Z,999.33
2018-01-20T04:34:57.264Z,999.29
2018-01-20T04:35:37.783Z,999.31
2018-01-20T04:36:18.340Z,999.27
2018-01-20T04:36:58.919Z,999.27
2018-01-20T04:37:39.532Z,999.27
2018-01-20T04:38:20.103Z,999.26
2018-01-20T04:39:00.625Z,999.27
2018-01-20T04:39:41.198Z,999.28
2018-01-20T04:40:21.787Z,999.19
2018-01-20T04:41:02.293Z,999.2
2018-01-20T04:41:42.902Z,999.28
2018-01-20T04:42:23.466Z,999.26
2018-01-20T04:43:04.061Z,999.2
2018-01-20T04:43:44.616Z,999.17
2018-01-20T04:44:25.177Z,999.18
2018-01-20T04:45:05.737Z,999.15
2018-01-20T04:45:46.290Z,999.18
2018-01-20T04:46:26.832Z,999.19
2018-01-20T04:47:07.528Z,999.17
2018-01-20T04:47:48.079Z,999.2
2018-01-20T04:48:28.687Z,999.13
2018-01-20T04:49:09.296Z,999.15
2018-01-20T04:49:49.807Z,999.16
2018-01-20T04:50:30.325Z,999.16
2018-01-20T04:51:10.997Z,999.15
2018-01-20T04:51:51.519Z,999.13
2018-01-20T04:52:32.057Z,999.11
2018-01-20T04:53:12.651Z,999.12
2018-01-20T04:53:53.143Z,999.14
2018-01-20T04:54:33.695Z,999.13
2018-01-20T04:55:14.312Z,999.1
2018-01-20T04:55:54.875Z,999.06
2018-01-20T04:56:35.466Z,999.09
2018-01-20T04:57:16.051Z,999.1
2018-01-20T04:57:56.667Z,999.12
2018-01-20T04:58:37.190Z,999.12
2018-01-20T04:59:17.761Z,999.12
2018-01-20T04:59:58.325Z,999.1
2018-01-20T05:00:38.929Z,999.08
2018-01-20T05:01:19.535Z,999.07
2018-01-20T05:02:00.132Z,999.05
2018-01-20T05:02:40.732Z,999.05
2018-01-20T05:03:21.253Z,999.08
2018-01-20T05:04:01.775Z,999.04
2018-01-20T05:04:42.380Z,999.08
2018-01-20T05:05:22.948Z,999.02
2018-01-20T05:06:03.497Z,999.1
2018-01-20T05:06:44.029Z,999.07
2018-01-20T05:07:24.582Z,999.06
2018-01-20T05:08:05.142Z,999.11
2018-01-20T05:08:45.737Z,999.06
2018-01-20T05:09:26.391Z,999.12
2018-01-20T05:10:06.997Z,999.12
2018-01-20T05:10:47.596Z,999.09
2018-01-20T05:11:28.117Z,999.02
2018-01-20T05:12:08.675Z,999.11
2018-01-20T05:12:49.261Z,999.03
2018-01-20T05:13:31.417Z,999.06
2018-01-20T05:14:12.068Z,999.04
2018-01-20T05:14:52.686Z,999.06
2018-01-20T05:15:33.205Z,999.06
2018-01-20T05:16:13.760Z,999.08
2018-01-20T05:16:54.294Z,999.07
2018-01-20T05:17:34.946Z,999.07
2018-01-20T05:18:15.566Z,999.04
2018-01-20T05:18:57.090Z,999.03
2018-01-20T05:19:36.755Z,999.05
2018-01-20T05:20:17.339Z,999.07
2018-01-20T05:20:57.878Z,999.12
2018-01-20T05:21:38.444Z,999.08
2018-01-20T05:22:18.962Z,999.06
2018-01-20T05:22:59.595Z,999.12
2018-01-20T05:23:40.173Z,999.1
2018-01-20T05:24:20.736Z,999.15
2018-01-20T05:25:01.271Z,999.04
2018-01-20T05:25:41.779Z,999.12
2018-01-20T05:26:22.373Z,999.14
2018-01-20T05:27:02.905Z,999.12
2018-01-20T05:27:43.466Z,999.1
2018-01-20T05:28:24.043Z,999.1
2018-01-20T05:29:04.657Z,999.07
2018-01-20T05:29:45.239Z,999.06
2018-01-20T05:30:25.796Z,999.03
2018-01-20T05:31:06.402Z,999.05
2018-01-20T05:31:46.946Z,999.04
2018-01-20T05:32:27.562Z,999.05
2018-01-20T05:33:08.111Z,999.03
2018-01-20T05:33:48.640Z,999.05
2018-01-20T05:34:29.242Z,999.04
2018-01-20T05:35:09.836Z,999
2018-01-20T05:35:50.387Z,998.97
2018-01-20T05:36:30.953Z,999.01
2018-01-20T05:37:11.573Z,999.05
2018-01-20T05:37:52.194Z,999.04
2018-01-20T05:38:32.786Z,999.06
2018-01-20T05:39:13.382Z,999.05
2018-01-20T05:39:53.900Z,999.01
2018-01-20T05:40:34.418Z,999.01
2018-01-20T05:41:14.974Z,999
2018-01-20T05:41:55.541Z,999.04
2018-01-20T05:42:36.111Z,998.98
2018-01-20T05:43:16.662Z,998.99
2018-01-20T05:43:57.232Z,998.98
2018-01-20T05:44:37.786Z,998.98
2018-01-20T05:45:18.362Z,998.94
2018-01-20T05:45:58.885Z,998.92
2018-01-20T05:46:39.456Z,998.91
2018-01-20T05:47:19.993Z,998.93
2018-01-20T05:48:00.558Z,998.97
2018-01-20T05:48:41.300Z,998.92
2018-01-20T05:49:21.874Z,998.94
2018-01-20T05:50:02.450Z,998.94
2018-01-20T05:50:43.049Z,998.98
2018-01-20T05:51:23.660Z,998.97
2018-01-20T05:52:04.219Z,998.94
2018-01-20T05:52:44.744Z,998.91
2018-01-20T05:53:25.317Z,998.92
2018-01-20T05:54:05.872Z,998.9
2018-01-20T05:54:46.427Z,998.88
2018-01-20T05:55:27.051Z,998.83
2018-01-20T05:56:07.598Z,998.85
2018-01-20T05:56:48.169Z,998.79
2018-01-20T05:57:28.745Z,998.79
2018-01-20T05:58:09.314Z,998.81
2018-01-20T05:58:49.859Z,998.77
2018-01-20T05:59:30.437Z,998.77
2018-01-20T06:00:11.000Z,998.76
2018-01-20T06:00:51.584Z,998.73
2018-01-20T06:01:32.170Z,998.72
2018-01-20T06:02:12.731Z,998.69
2018-01-20T06:02:53.343Z,998.73
2018-01-20T06:03:33.859Z,998.78
2018-01-20T06:04:14.499Z,998.72
2018-01-20T06:04:55.018Z,998.72
2018-01-20T06:05:35.578Z,998.72
2018-01-20T06:06:16.120Z,998.77
2018-01-20T06:06:57.595Z,998.73
2018-01-20T06:07:37.332Z,998.74
2018-01-20T06:08:17.899Z,998.74
2018-01-20T06:08:58.489Z,998.77
2018-01-20T06:09:39.005Z,998.78
2018-01-20T06:10:19.519Z,998.69
2018-01-20T06:11:00.175Z,998.73
2018-01-20T06:11:40.717Z,998.7
2018-01-20T06:12:21.276Z,998.69
2018-01-20T06:13:01.858Z,998.65
2018-01-20T06:13:42.385Z,998.68
2018-01-20T06:14:22.930Z,998.68
2018-01-20T06:15:03.586Z,998.62
2018-01-20T06:15:44.088Z,998.62
2018-01-20T06:16:24.674Z,998.68
2018-01-20T06:17:05.336Z,998.63
2018-01-20T06:17:45.866Z,998.7
2018-01-20T06:18:26.566Z,998.7
2018-01-20T06:19:07.105Z,998.71
2018-01-20T06:19:47.719Z,998.68
2018-01-20T06:20:28.303Z,998.68
2018-01-20T06:21:08.885Z,998.65
2018-01-20T06:21:49.425Z,998.63
2018-01-20T06:22:30.027Z,998.64
2018-01-20T06:23:10.527Z,998.68
2018-01-20T06:23:51.144Z,998.64
2018-01-20T06:24:31.688Z,998.55
2018-01-20T06:25:12.884Z,998.61
2018-01-20T06:25:53.588Z,998.6
2018-01-20T06:26:34.209Z,998.59
2018-01-20T06:27:14.782Z,998.58
2018-01-20T06:27:55.361Z,998.55
2018-01-20T06:28:35.975Z,998.54
2018-01-20T06:29:16.477Z,998.51
2018-01-20T06:29:57.108Z,998.56
2018-01-20T06:30:37.657Z,998.53
2018-01-20T06:31:18.219Z,998.49
2018-01-20T06:31:58.726Z,998.52
2018-01-20T06:32:39.277Z,998.54
2018-01-20T06:33:19.851Z,998.52
2018-01-20T06:34:00.356Z,998.5
2018-01-20T06:34:40.930Z,998.52
2018-01-20T06:35:21.514Z,998.51
2018-01-20T06:36:02.093Z,998.51
2018-01-20T06:36:42.621Z,998.54
2018-01-20T06:37:23.194Z,998.56
2018-01-20T06:38:03.783Z,998.47
2018-01-20T06:38:44.376Z,998.55
2018-01-20T06:39:24.964Z,998.48
2018-01-20T06:40:05.595Z,998.49
2018-01-20T06:40:46.204Z,998.52
2018-01-20T06:41:26.759Z,998.5
2018-01-20T06:42:07.351Z,998.41
2018-01-20T06:42:47.880Z,998.45
2018-01-20T06:43:28.475Z,998.48
2018-01-20T06:44:09.093Z,998.47
2018-01-20T06:44:49.644Z,998.48
2018-01-20T06:45:30.298Z,998.48
2018-01-20T06:46:10.940Z,998.44
2018-01-20T06:46:51.533Z,998.48
2018-01-20T06:47:32.051Z,998.52
2018-01-20T06:48:12.649Z,998.45
2018-01-20T06:48:53.244Z,998.47
2018-01-20T06:49:33.797Z,998.42
2018-01-20T06:50:14.413Z,998.44
2018-01-20T06:50:55.029Z,998.44
2018-01-20T06:51:35.587Z,998.43
2018-01-20T06:52:16.158Z,998.42
2018-01-20T06:52:56.742Z,998.47
2018-01-20T06:53:37.351Z,998.44
2018-01-20T06:54:18.014Z,998.45
2018-01-20T06:54:58.600Z,998.44
2018-01-20T06:55:39.168Z,998.47
2018-01-20T06:56:19.799Z,998.47
2018-01-20T06:57:00.327Z,998.39
2018-01-20T06:57:41.016Z,998.46
2018-01-20T06:58:21.516Z,998.46
2018-01-20T06:59:02.066Z,998.41
2018-01-20T06:59:46.020Z,998.38
2018-01-20T07:01:16.175Z,998.39
2018-01-20T07:01:58.557Z,998.37
2018-01-20T07:02:39.063Z,998.37
2018-01-20T07:03:19.686Z,998.37
2018-01-20T07:04:00.261Z,998.38
2018-01-20T07:04:40.823Z,998.41
2018-01-20T07:05:21.375Z,998.4
2018-01-20T07:06:02.001Z,998.43
2018-01-20T07:30:26.200Z,998.12
2018-01-20T07:31:06.800Z,998.17
2018-01-20T07:31:47.351Z,998.14
2018-01-20T07:32:27.979Z,998.14
2018-01-20T07:33:08.573Z,998.11
2018-01-20T07:33:49.076Z,998.07
2018-01-20T07:34:29.646Z,998.08
2018-01-20T07:35:10.165Z,998.05
2018-01-20T07:35:52.646Z,998.1
2018-01-20T07:36:33.217Z,998.06
2018-01-20T07:37:13.759Z,998.07
2018-01-20T07:37:54.370Z,998.1
2018-01-20T07:38:34.976Z,998.08
2018-01-20T07:39:15.476Z,998.11
2018-01-20T07:39:56.017Z,998.03
2018-01-20T07:40:36.679Z,998.11
2018-01-20T07:41:17.150Z,998.03
2018-01-20T07:41:57.767Z,998.07
2018-01-20T07:42:38.261Z,998.04
2018-01-20T07:43:18.803Z,998.04
2018-01-20T07:43:59.416Z,998.07
2018-01-20T07:44:39.995Z,998.05
2018-01-20T07:45:20.598Z,998.03
2018-01-20T07:46:01.205Z,998.04
2018-01-20T07:46:41.703Z,998.06
2018-01-20T07:47:22.236Z,998.05
2018-01-20T07:48:02.798Z,998.05
2018-01-20T07:48:43.350Z,998.05
2018-01-20T07:49:23.871Z,998.07
2018-01-20T07:50:04.417Z,998.08
2018-01-20T07:50:44.947Z,998.05
2018-01-20T07:51:25.490Z,998.05
2018-01-20T07:52:06.016Z,998.03
2018-01-20T07:52:46.558Z,998
2018-01-20T07:53:27.093Z,998.03
2018-01-20T07:54:08.300Z,998.1
2018-01-20T07:54:48.855Z,998.01
2018-01-20T07:55:29.373Z,998.02
2018-01-20T07:56:09.952Z,997.98
2018-01-20T07:56:50.483Z,998
2018-01-20T07:57:30.986Z,997.97
2018-01-20T07:58:11.560Z,998.01
2018-01-20T07:58:52.143Z,998.01
2018-01-20T07:59:32.741Z,997.94
2018-01-20T08:00:13.275Z,998
2018-01-20T08:00:53.839Z,997.97
2018-01-20T08:01:34.439Z,997.95
2018-01-20T08:02:14.994Z,997.96
2018-01-20T08:02:55.605Z,997.95
2018-01-20T08:03:36.180Z,997.92
2018-01-20T08:04:16.760Z,997.91
2018-01-20T08:04:57.419Z,997.87
2018-01-20T08:05:37.975Z,997.93
2018-01-20T08:06:18.545Z,997.9
2018-01-20T08:06:59.204Z,997.93
2018-01-20T08:07:39.691Z,997.92
2018-01-20T08:08:20.205Z,997.91
2018-01-20T08:09:00.792Z,997.9
2018-01-20T08:09:41.414Z,997.89
2018-01-20T08:10:21.958Z,997.89
2018-01-20T08:11:02.491Z,997.88
2018-01-20T08:11:43.077Z,997.86
2018-01-20T08:12:23.565Z,997.85
2018-01-20T08:13:04.106Z,997.86
2018-01-20T08:13:44.690Z,997.8
2018-01-20T08:14:25.275Z,997.79
2018-01-20T08:15:05.901Z,997.78
2018-01-20T08:15:46.419Z,997.78
2018-01-20T08:16:26.998Z,997.73
2018-01-20T08:17:07.523Z,997.67
2018-01-20T08:17:48.084Z,997.67
2018-01-20T08:18:28.631Z,997.64
2018-01-20T08:19:09.238Z,997.63
2018-01-20T08:19:49.782Z,997.66
2018-01-20T08:20:30.276Z,997.58
2018-01-20T08:21:10.864Z,997.61
2018-01-20T08:21:51.586Z,997.62
2018-01-20T08:22:32.132Z,997.63
2018-01-20T08:23:12.669Z,997.6
2018-01-20T08:23:53.236Z,997.61
2018-01-20T08:24:33.836Z,997.65
2018-01-20T08:25:14.412Z,997.61
2018-01-20T08:25:54.940Z,997.62
2018-01-20T08:26:35.512Z,997.55
2018-01-20T08:27:17.726Z,997.6
2018-01-20T08:27:59.136Z,997.57
2018-01-20T08:28:38.903Z,997.57
2018-01-20T08:29:19.438Z,997.55
2018-01-20T08:29:59.981Z,997.55
2018-01-20T08:30:40.772Z,997.62
2018-01-20T08:31:21.401Z,997.57
2018-01-20T08:32:01.921Z,997.55
2018-01-20T08:32:42.466Z,997.57
2018-01-20T08:33:23.060Z,997.57
2018-01-20T08:34:03.574Z,997.52
2018-01-20T08:34:44.284Z,997.56
2018-01-20T08:35:24.958Z,997.59
2018-01-20T08:36:05.481Z,997.56
2018-01-20T08:36:46.101Z,997.55
2018-01-20T08:37:26.619Z,997.56
2018-01-20T08:38:07.179Z,997.5
2018-01-20T08:38:47.675Z,997.48
2018-01-20T08:39:29.957Z,997.41
2018-01-20T08:40:10.531Z,997.46
2018-01-20T08:40:51.111Z,997.45
2018-01-20T08:41:32.256Z,997.44
2018-01-20T08:42:14.570Z,997.46
2018-01-20T08:42:55.080Z,997.43
2018-01-20T08:43:35.667Z,997.43
2018-01-20T08:44:16.197Z,997.45
2018-01-20T08:44:56.741Z,997.39
2018-01-20T08:45:37.340Z,997.39
2018-01-20T08:46:17.998Z,997.38
2018-01-20T08:46:58.745Z,997.41
2018-01-20T08:47:39.233Z,997.39
2018-01-20T08:48:19.822Z,997.37
2018-01-20T08:49:00.414Z,997.43
2018-01-20T08:49:40.981Z,997.41
2018-01-20T08:50:21.535Z,997.43
2018-01-20T08:51:02.166Z,997.49
2018-01-20T08:51:42.790Z,997.51
2018-01-20T08:52:23.308Z,997.47
2018-01-20T08:53:03.903Z,997.5
2018-01-20T08:53:44.452Z,997.55
2018-01-20T08:54:25.101Z,997.5
2018-01-20T08:55:05.623Z,997.56
2018-01-20T08:55:46.265Z,997.48
2018-01-20T08:56:26.858Z,997.51
2018-01-20T08:57:07.439Z,997.49
2018-01-20T08:57:48.023Z,997.45
2018-01-20T08:58:28.630Z,997.5
2018-01-20T08:59:09.180Z,997.46
2018-01-20T08:59:49.831Z,997.45
2018-01-20T09:00:30.442Z,997.33
2018-01-20T09:01:12.873Z,997.39